sensor_id;sensor_type;location;lat;lon;timestamp;P1;durP1;ratioP1;P2;durP2;ratioP2
53879;SDS011;39791;53.184;5.486;2024-03-02T00:00:25;22.92;;;20.92;;
53879;SDS011;39791;53.184;5.486;2024-03-02T00:02:52;21.63;;;19.73;;
53879;SDS011;39791;53.184;5.486;2024-03-02T00:05:18;23.83;;;21.67;;
53879;SDS011;39791;53.184;5.486;2024-03-02T00:07:46;24.10;;;21.92;;
53879;SDS011;39791;53.184;5.486;2024-03-02T00:10:19;23.65;;;21.58;;
53879;SDS011;39791;53.184;5.486;2024-03-02T00:12:48;23.17;;;21.17;;
53879;SDS011;39791;53.184;5.486;2024-03-02T00:17:57;23.50;;;21.50;;
53879;SDS011;39791;53.184;5.486;2024-03-02T00:20:24;24.98;;;22.80;;
53879;SDS011;39791;53.184;5.486;2024-03-02T00:22:55;24.20;;;22.08;;
53879;SDS011;39791;53.184;5.486;2024-03-02T00:25:43;21.95;;;20.05;;
53879;SDS011;39791;53.184;5.486;2024-03-02T00:28:25;23.05;;;21.05;;
53879;SDS011;39791;53.184;5.486;2024-03-02T00:33:36;23.70;;;21.60;;
53879;SDS011;39791;53.184;5.486;2024-03-02T00:36:05;24.42;;;22.17;;
53879;SDS011;39791;53.184;5.486;2024-03-02T00:38:31;22.25;;;20.25;;
53879;SDS011;39791;53.184;5.486;2024-03-02T00:40:59;25.77;;;23.58;;
53879;SDS011;39791;53.184;5.486;2024-03-02T00:43:48;24.27;;;22.08;;
53879;SDS011;39791;53.184;5.486;2024-03-02T00:46:27;24.55;;;22.45;;
53879;SDS011;39791;53.184;5.486;2024-03-02T00:48:56;24.67;;;22.48;;
53879;SDS011;39791;53.184;5.486;2024-03-02T00:51:24;25.23;;;22.83;;
53879;SDS011;39791;53.184;5.486;2024-03-02T00:53:52;24.15;;;21.90;;
53879;SDS011;39791;53.184;5.486;2024-03-02T00:56:21;25.25;;;22.92;;
53879;SDS011;39791;53.184;5.486;2024-03-02T00:58:48;24.92;;;22.42;;
53879;SDS011;39791;53.184;5.486;2024-03-02T01:01:14;24.13;;;22.00;;
53879;SDS011;39791;53.184;5.486;2024-03-02T01:03:41;24.27;;;22.08;;
53879;SDS011;39791;53.184;5.486;2024-03-02T01:06:07;23.05;;;21.05;;
53879;SDS011;39791;53.184;5.486;2024-03-02T01:08:34;23.00;;;20.83;;
53879;SDS011;39791;53.184;5.486;2024-03-02T01:11:00;23.52;;;21.42;;
53879;SDS011;39791;53.184;5.486;2024-03-02T01:13:26;24.77;;;22.48;;
53879;SDS011;39791;53.184;5.486;2024-03-02T01:15:51;24.17;;;22.02;;
53879;SDS011;39791;53.184;5.486;2024-03-02T01:18:18;24.35;;;22.25;;
53879;SDS011;39791;53.184;5.486;2024-03-02T01:20:43;24.17;;;21.77;;
53879;SDS011;39791;53.184;5.486;2024-03-02T01:23:09;23.67;;;21.48;;
53879;SDS011;39791;53.184;5.486;2024-03-02T01:25:35;23.33;;;21.20;;
53879;SDS011;39791;53.184;5.486;2024-03-02T01:28:00;24.95;;;22.48;;
53879;SDS011;39791;53.184;5.486;2024-03-02T01:30:26;24.27;;;22.02;;
53879;SDS011;39791;53.184;5.486;2024-03-02T01:32:52;24.45;;;22.25;;
53879;SDS011;39791;53.184;5.486;2024-03-02T01:35:17;26.48;;;23.90;;
53879;SDS011;39791;53.184;5.486;2024-03-02T01:37:43;24.90;;;22.60;;
53879;SDS011;39791;53.184;5.486;2024-03-02T01:40:09;24.73;;;22.38;;
53879;SDS011;39791;53.184;5.486;2024-03-02T01:42:38;24.20;;;21.90;;
53879;SDS011;39791;53.184;5.486;2024-03-02T01:45:05;23.65;;;21.45;;
53879;SDS011;39791;53.184;5.486;2024-03-02T01:47:31;24.65;;;22.25;;
53879;SDS011;39791;53.184;5.486;2024-03-02T01:49:57;25.17;;;22.77;;
53879;SDS011;39791;53.184;5.486;2024-03-02T01:52:23;23.77;;;21.58;;
53879;SDS011;39791;53.184;5.486;2024-03-02T01:54:49;25.73;;;23.42;;
53879;SDS011;39791;53.184;5.486;2024-03-02T01:57:15;26.00;;;23.50;;
53879;SDS011;39791;53.184;5.486;2024-03-02T01:59:40;25.17;;;22.85;;
53879;SDS011;39791;53.184;5.486;2024-03-02T02:02:06;25.40;;;23.00;;
53879;SDS011;39791;53.184;5.486;2024-03-02T02:04:32;28.38;;;25.73;;
53879;SDS011;39791;53.184;5.486;2024-03-02T02:06:58;28.77;;;25.92;;
53879;SDS011;39791;53.184;5.486;2024-03-02T02:09:24;29.27;;;26.27;;
53879;SDS011;39791;53.184;5.486;2024-03-02T02:11:50;35.40;;;31.45;;
53879;SDS011;39791;53.184;5.486;2024-03-02T02:14:16;30.33;;;27.13;;
53879;SDS011;39791;53.184;5.486;2024-03-02T02:16:42;31.02;;;27.77;;
53879;SDS011;39791;53.184;5.486;2024-03-02T02:19:08;34.95;;;31.35;;
53879;SDS011;39791;53.184;5.486;2024-03-02T02:21:34;34.97;;;31.48;;
53879;SDS011;39791;53.184;5.486;2024-03-02T02:24:00;32.70;;;29.50;;
53879;SDS011;39791;53.184;5.486;2024-03-02T02:26:28;34.20;;;30.80;;
53879;SDS011;39791;53.184;5.486;2024-03-02T02:28:54;38.63;;;34.33;;
53879;SDS011;39791;53.184;5.486;2024-03-02T02:31:19;37.10;;;32.90;;
53879;SDS011;39791;53.184;5.486;2024-03-02T02:33:45;40.20;;;35.90;;
53879;SDS011;39791;53.184;5.486;2024-03-02T02:36:10;41.20;;;36.72;;
53879;SDS011;39791;53.184;5.486;2024-03-02T02:38:37;42.30;;;38.13;;
53879;SDS011;39791;53.184;5.486;2024-03-02T02:41:05;44.80;;;40.30;;
53879;SDS011;39791;53.184;5.486;2024-03-02T02:43:31;42.55;;;38.28;;
53879;SDS011;39791;53.184;5.486;2024-03-02T02:45:56;42.22;;;37.72;;
53879;SDS011;39791;53.184;5.486;2024-03-02T02:48:22;43.15;;;38.88;;
53879;SDS011;39791;53.184;5.486;2024-03-02T02:50:47;43.90;;;39.50;;
53879;SDS011;39791;53.184;5.486;2024-03-02T02:53:13;41.63;;;37.33;;
53879;SDS011;39791;53.184;5.486;2024-03-02T02:55:39;45.22;;;40.65;;
53879;SDS011;39791;53.184;5.486;2024-03-02T02:58:11;49.28;;;44.08;;
53879;SDS011;39791;53.184;5.486;2024-03-02T03:00:37;49.75;;;44.97;;
53879;SDS011;39791;53.184;5.486;2024-03-02T03:03:03;49.03;;;44.05;;
53879;SDS011;39791;53.184;5.486;2024-03-02T03:05:29;50.88;;;45.80;;
53879;SDS011;39791;53.184;5.486;2024-03-02T03:07:54;57.88;;;51.88;;
53879;SDS011;39791;53.184;5.486;2024-03-02T03:10:20;54.22;;;48.53;;
53879;SDS011;39791;53.184;5.486;2024-03-02T03:12:48;50.55;;;45.35;;
53879;SDS011;39791;53.184;5.486;2024-03-02T03:15:14;50.20;;;45.35;;
53879;SDS011;39791;53.184;5.486;2024-03-02T03:17:41;60.85;;;54.65;;
53879;SDS011;39791;53.184;5.486;2024-03-02T03:20:07;59.58;;;53.45;;
53879;SDS011;39791;53.184;5.486;2024-03-02T03:22:36;54.67;;;49.42;;
53879;SDS011;39791;53.184;5.486;2024-03-02T03:25:04;46.47;;;41.95;;
53879;SDS011;39791;53.184;5.486;2024-03-02T03:27:30;47.85;;;42.95;;
53879;SDS011;39791;53.184;5.486;2024-03-02T03:29:56;52.00;;;46.80;;
53879;SDS011;39791;53.184;5.486;2024-03-02T03:32:21;52.25;;;47.10;;
53879;SDS011;39791;53.184;5.486;2024-03-02T03:34:47;50.03;;;45.08;;
53879;SDS011;39791;53.184;5.486;2024-03-02T03:37:13;54.83;;;48.88;;
53879;SDS011;39791;53.184;5.486;2024-03-02T03:39:40;51.10;;;45.72;;
53879;SDS011;39791;53.184;5.486;2024-03-02T03:42:06;52.15;;;46.45;;
53879;SDS011;39791;53.184;5.486;2024-03-02T03:44:31;58.38;;;52.58;;
53879;SDS011;39791;53.184;5.486;2024-03-02T03:46:58;52.33;;;47.15;;
53879;SDS011;39791;53.184;5.486;2024-03-02T03:49:24;51.08;;;45.95;;
53879;SDS011;39791;53.184;5.486;2024-03-02T03:51:49;42.47;;;38.28;;
53879;SDS011;39791;53.184;5.486;2024-03-02T03:54:15;51.28;;;46.08;;
53879;SDS011;39791;53.184;5.486;2024-03-02T03:56:41;56.65;;;50.80;;
53879;SDS011;39791;53.184;5.486;2024-03-02T03:59:06;46.47;;;41.97;;
53879;SDS011;39791;53.184;5.486;2024-03-02T04:01:32;57.85;;;51.90;;
53879;SDS011;39791;53.184;5.486;2024-03-02T04:03:58;57.90;;;51.90;;
53879;SDS011;39791;53.184;5.486;2024-03-02T04:06:24;46.17;;;41.20;;
53879;SDS011;39791;53.184;5.486;2024-03-02T04:08:50;53.40;;;47.55;;
53879;SDS011;39791;53.184;5.486;2024-03-02T04:11:16;58.92;;;52.35;;
53879;SDS011;39791;53.184;5.486;2024-03-02T04:13:41;62.35;;;55.75;;
53879;SDS011;39791;53.184;5.486;2024-03-02T04:16:07;49.08;;;44.08;;
53879;SDS011;39791;53.184;5.486;2024-03-02T04:18:33;55.83;;;50.03;;
53879;SDS011;39791;53.184;5.486;2024-03-02T04:21:00;62.47;;;55.97;;
53879;SDS011;39791;53.184;5.486;2024-03-02T04:23:26;58.75;;;52.75;;
53879;SDS011;39791;53.184;5.486;2024-03-02T04:25:51;59.20;;;53.15;;
53879;SDS011;39791;53.184;5.486;2024-03-02T04:28:17;52.88;;;47.60;;
53879;SDS011;39791;53.184;5.486;2024-03-02T04:30:42;61.83;;;55.72;;
53879;SDS011;39791;53.184;5.486;2024-03-02T04:33:08;52.97;;;47.67;;
53879;SDS011;39791;53.184;5.486;2024-03-02T04:35:35;61.92;;;56.33;;
53879;SDS011;39791;53.184;5.486;2024-03-02T04:38:04;62.60;;;56.85;;
53879;SDS011;39791;53.184;5.486;2024-03-02T04:40:29;63.22;;;57.08;;
53879;SDS011;39791;53.184;5.486;2024-03-02T04:42:55;61.78;;;55.60;;
53879;SDS011;39791;53.184;5.486;2024-03-02T04:45:20;50.47;;;46.03;;
53879;SDS011;39791;53.184;5.486;2024-03-02T04:47:46;63.63;;;57.55;;
53879;SDS011;39791;53.184;5.486;2024-03-02T04:50:12;49.80;;;45.30;;
53879;SDS011;39791;53.184;5.486;2024-03-02T04:52:37;49.15;;;45.00;;
53879;SDS011;39791;53.184;5.486;2024-03-02T04:55:03;54.83;;;50.08;;
53879;SDS011;39791;53.184;5.486;2024-03-02T04:57:41;49.45;;;44.95;;
53879;SDS011;39791;53.184;5.486;2024-03-02T05:00:07;58.55;;;53.17;;
53879;SDS011;39791;53.184;5.486;2024-03-02T05:02:34;70.53;;;63.90;;
53879;SDS011;39791;53.184;5.486;2024-03-02T05:05:00;66.57;;;60.05;;
53879;SDS011;39791;53.184;5.486;2024-03-02T05:07:26;73.25;;;66.55;;
53879;SDS011;39791;53.184;5.486;2024-03-02T05:09:51;69.13;;;62.83;;
53879;SDS011;39791;53.184;5.486;2024-03-02T05:12:17;76.28;;;69.30;;
53879;SDS011;39791;53.184;5.486;2024-03-02T05:15:01;80.72;;;73.47;;
53879;SDS011;39791;53.184;5.486;2024-03-02T05:17:27;77.90;;;70.30;;
53879;SDS011;39791;53.184;5.486;2024-03-02T05:19:53;79.20;;;72.03;;
53879;SDS011;39791;53.184;5.486;2024-03-02T05:22:18;75.85;;;68.85;;
53879;SDS011;39791;53.184;5.486;2024-03-02T05:24:44;79.43;;;72.15;;
53879;SDS011;39791;53.184;5.486;2024-03-02T05:27:09;74.78;;;68.03;;
53879;SDS011;39791;53.184;5.486;2024-03-02T05:29:35;62.33;;;56.33;;
53879;SDS011;39791;53.184;5.486;2024-03-02T05:32:01;70.75;;;64.05;;
53879;SDS011;39791;53.184;5.486;2024-03-02T05:34:26;51.92;;;47.15;;
53879;SDS011;39791;53.184;5.486;2024-03-02T05:36:52;67.90;;;61.30;;
53879;SDS011;39791;53.184;5.486;2024-03-02T05:39:18;56.22;;;51.13;;
53879;SDS011;39791;53.184;5.486;2024-03-02T05:41:43;58.60;;;52.88;;
53879;SDS011;39791;53.184;5.486;2024-03-02T05:44:09;60.63;;;54.83;;
53879;SDS011;39791;53.184;5.486;2024-03-02T05:46:34;62.60;;;56.40;;
53879;SDS011;39791;53.184;5.486;2024-03-02T05:49:00;69.30;;;62.40;;
53879;SDS011;39791;53.184;5.486;2024-03-02T05:51:26;86.53;;;78.72;;
53879;SDS011;39791;53.184;5.486;2024-03-02T05:53:52;76.70;;;69.65;;
53879;SDS011;39791;53.184;5.486;2024-03-02T05:56:18;67.80;;;61.50;;
53879;SDS011;39791;53.184;5.486;2024-03-02T05:58:43;75.88;;;69.18;;
53879;SDS011;39791;53.184;5.486;2024-03-02T06:01:09;78.28;;;71.03;;
53879;SDS011;39791;53.184;5.486;2024-03-02T06:03:34;89.10;;;81.00;;
53879;SDS011;39791;53.184;5.486;2024-03-02T06:06:00;86.57;;;78.68;;
53879;SDS011;39791;53.184;5.486;2024-03-02T06:08:25;72.95;;;65.97;;
53879;SDS011;39791;53.184;5.486;2024-03-02T06:10:51;92.65;;;84.35;;
53879;SDS011;39791;53.184;5.486;2024-03-02T06:13:16;83.45;;;76.00;;
53879;SDS011;39791;53.184;5.486;2024-03-02T06:15:42;71.55;;;65.03;;
53879;SDS011;39791;53.184;5.486;2024-03-02T06:18:08;73.55;;;66.88;;
53879;SDS011;39791;53.184;5.486;2024-03-02T06:20:34;94.03;;;84.90;;
53879;SDS011;39791;53.184;5.486;2024-03-02T06:23:00;110.28;;;68.55;;
53879;SDS011;39791;53.184;5.486;2024-03-02T06:25:25;73.18;;;65.97;;
53879;SDS011;39791;53.184;5.486;2024-03-02T06:27:51;86.20;;;77.72;;
53879;SDS011;39791;53.184;5.486;2024-03-02T06:30:17;75.95;;;68.22;;
53879;SDS011;39791;53.184;5.486;2024-03-02T06:32:42;87.50;;;79.05;;
53879;SDS011;39791;53.184;5.486;2024-03-02T06:35:08;81.22;;;73.13;;
53879;SDS011;39791;53.184;5.486;2024-03-02T06:37:35;90.10;;;81.43;;
53879;SDS011;39791;53.184;5.486;2024-03-02T06:40:02;90.70;;;81.95;;
53879;SDS011;39791;53.184;5.486;2024-03-02T06:42:28;83.35;;;75.03;;
53879;SDS011;39791;53.184;5.486;2024-03-02T06:44:58;96.55;;;87.15;;
53879;SDS011;39791;53.184;5.486;2024-03-02T06:47:24;99.03;;;89.05;;
53879;SDS011;39791;53.184;5.486;2024-03-02T06:49:49;77.15;;;69.53;;
53879;SDS011;39791;53.184;5.486;2024-03-02T06:52:15;83.82;;;75.38;;
53879;SDS011;39791;53.184;5.486;2024-03-02T06:54:41;90.60;;;81.68;;
53879;SDS011;39791;53.184;5.486;2024-03-02T06:57:07;98.63;;;89.18;;
53879;SDS011;39791;53.184;5.486;2024-03-02T06:59:32;89.32;;;80.22;;
53879;SDS011;39791;53.184;5.486;2024-03-02T07:01:58;92.28;;;83.22;;
53879;SDS011;39791;53.184;5.486;2024-03-02T07:04:24;79.50;;;70.28;;
53879;SDS011;39791;53.184;5.486;2024-03-02T07:06:50;90.53;;;81.47;;
53879;SDS011;39791;53.184;5.486;2024-03-02T07:09:16;82.65;;;74.55;;
53879;SDS011;39791;53.184;5.486;2024-03-02T07:11:42;69.85;;;63.05;;
53879;SDS011;39791;53.184;5.486;2024-03-02T07:14:08;87.07;;;78.55;;
53879;SDS011;39791;53.184;5.486;2024-03-02T07:16:33;65.22;;;58.95;;
53879;SDS011;39791;53.184;5.486;2024-03-02T07:18:59;80.55;;;72.60;;
53879;SDS011;39791;53.184;5.486;2024-03-02T07:21:26;65.32;;;59.00;;
53879;SDS011;39791;53.184;5.486;2024-03-02T07:23:53;61.25;;;55.33;;
53879;SDS011;39791;53.184;5.486;2024-03-02T07:26:18;68.80;;;62.13;;
53879;SDS011;39791;53.184;5.486;2024-03-02T07:28:48;70.32;;;63.65;;
53879;SDS011;39791;53.184;5.486;2024-03-02T07:31:14;73.75;;;66.30;;
53879;SDS011;39791;53.184;5.486;2024-03-02T07:33:40;72.13;;;64.82;;
53879;SDS011;39791;53.184;5.486;2024-03-02T07:36:06;70.93;;;64.07;;
53879;SDS011;39791;53.184;5.486;2024-03-02T07:38:33;62.60;;;56.65;;
53879;SDS011;39791;53.184;5.486;2024-03-02T07:41:00;62.65;;;56.65;;
53879;SDS011;39791;53.184;5.486;2024-03-02T07:43:26;60.38;;;54.65;;
53879;SDS011;39791;53.184;5.486;2024-03-02T07:45:51;66.30;;;59.70;;
53879;SDS011;39791;53.184;5.486;2024-03-02T07:48:17;69.57;;;62.45;;
53879;SDS011;39791;53.184;5.486;2024-03-02T07:50:43;64.95;;;58.47;;
53879;SDS011;39791;53.184;5.486;2024-03-02T07:53:09;60.13;;;54.08;;
53879;SDS011;39791;53.184;5.486;2024-03-02T07:55:35;54.22;;;49.13;;
53879;SDS011;39791;53.184;5.486;2024-03-02T07:58:01;56.50;;;50.70;;
53879;SDS011;39791;53.184;5.486;2024-03-02T08:00:26;49.22;;;44.22;;
53879;SDS011;39791;53.184;5.486;2024-03-02T08:02:53;53.45;;;47.45;;
53879;SDS011;39791;53.184;5.486;2024-03-02T08:05:19;54.00;;;48.13;;
53879;SDS011;39791;53.184;5.486;2024-03-02T08:07:45;52.40;;;46.78;;
53879;SDS011;39791;53.184;5.486;2024-03-02T08:10:11;43.88;;;39.25;;
53879;SDS011;39791;53.184;5.486;2024-03-02T08:12:37;47.95;;;42.85;;
53879;SDS011;39791;53.184;5.486;2024-03-02T08:15:03;44.50;;;39.88;;
53879;SDS011;39791;53.184;5.486;2024-03-02T08:17:29;44.25;;;39.28;;
53879;SDS011;39791;53.184;5.486;2024-03-02T08:19:55;43.75;;;39.05;;
53879;SDS011;39791;53.184;5.486;2024-03-02T08:22:21;38.03;;;33.92;;
53879;SDS011;39791;53.184;5.486;2024-03-02T08:24:47;32.65;;;29.35;;
53879;SDS011;39791;53.184;5.486;2024-03-02T08:27:13;32.15;;;28.83;;
53879;SDS011;39791;53.184;5.486;2024-03-02T08:29:39;31.63;;;28.52;;
53879;SDS011;39791;53.184;5.486;2024-03-02T08:32:06;32.97;;;29.67;;
53879;SDS011;39791;53.184;5.486;2024-03-02T08:34:32;27.45;;;24.58;;
53879;SDS011;39791;53.184;5.486;2024-03-02T08:36:58;25.05;;;22.65;;
53879;SDS011;39791;53.184;5.486;2024-03-02T08:39:24;25.63;;;22.88;;
53879;SDS011;39791;53.184;5.486;2024-03-02T08:41:50;26.77;;;24.05;;
53879;SDS011;39791;53.184;5.486;2024-03-02T08:44:16;23.30;;;21.08;;
53879;SDS011;39791;53.184;5.486;2024-03-02T08:46:42;23.23;;;21.02;;
53879;SDS011;39791;53.184;5.486;2024-03-02T08:49:08;26.15;;;23.55;;
53879;SDS011;39791;53.184;5.486;2024-03-02T08:51:34;26.65;;;23.98;;
53879;SDS011;39791;53.184;5.486;2024-03-02T08:54:00;27.70;;;25.00;;
53879;SDS011;39791;53.184;5.486;2024-03-02T08:56:26;23.30;;;21.20;;
53879;SDS011;39791;53.184;5.486;2024-03-02T08:58:51;25.38;;;22.90;;
53879;SDS011;39791;53.184;5.486;2024-03-02T09:01:18;25.02;;;22.52;;
53879;SDS011;39791;53.184;5.486;2024-03-02T09:03:44;22.90;;;20.70;;
53879;SDS011;39791;53.184;5.486;2024-03-02T09:06:10;23.60;;;21.30;;
53879;SDS011;39791;53.184;5.486;2024-03-02T09:08:37;25.05;;;22.45;;
53879;SDS011;39791;53.184;5.486;2024-03-02T09:11:03;21.80;;;19.73;;
53879;SDS011;39791;53.184;5.486;2024-03-02T09:13:32;21.88;;;19.77;;
53879;SDS011;39791;53.184;5.486;2024-03-02T09:15:58;24.27;;;21.92;;
53879;SDS011;39791;53.184;5.486;2024-03-02T09:18:24;23.80;;;21.27;;
53879;SDS011;39791;53.184;5.486;2024-03-02T09:20:49;23.30;;;21.10;;
53879;SDS011;39791;53.184;5.486;2024-03-02T09:23:15;21.90;;;19.83;;
53879;SDS011;39791;53.184;5.486;2024-03-02T09:25:40;23.95;;;21.63;;
53879;SDS011;39791;53.184;5.486;2024-03-02T09:28:06;23.73;;;21.33;;
53879;SDS011;39791;53.184;5.486;2024-03-02T09:30:32;21.00;;;19.00;;
53879;SDS011;39791;53.184;5.486;2024-03-02T09:32:58;24.23;;;21.90;;
53879;SDS011;39791;53.184;5.486;2024-03-02T09:35:24;23.17;;;20.88;;
53879;SDS011;39791;53.184;5.486;2024-03-02T09:37:49;20.63;;;18.75;;
53879;SDS011;39791;53.184;5.486;2024-03-02T09:40:15;21.83;;;19.73;;
53879;SDS011;39791;53.184;5.486;2024-03-02T09:42:41;22.83;;;20.52;;
53879;SDS011;39791;53.184;5.486;2024-03-02T09:45:08;23.55;;;21.15;;
53879;SDS011;39791;53.184;5.486;2024-03-02T09:47:34;21.80;;;19.80;;
53879;SDS011;39791;53.184;5.486;2024-03-02T09:50:00;23.13;;;20.67;;
53879;SDS011;39791;53.184;5.486;2024-03-02T09:52:25;21.75;;;19.75;;
53879;SDS011;39791;53.184;5.486;2024-03-02T09:54:52;23.38;;;21.15;;
53879;SDS011;39791;53.184;5.486;2024-03-02T09:57:17;22.05;;;20.10;;
53879;SDS011;39791;53.184;5.486;2024-03-02T09:59:43;22.45;;;20.40;;
53879;SDS011;39791;53.184;5.486;2024-03-02T10:02:10;24.08;;;21.77;;
53879;SDS011;39791;53.184;5.486;2024-03-02T10:04:36;23.90;;;21.40;;
53879;SDS011;39791;53.184;5.486;2024-03-02T10:09:37;21.70;;;19.70;;
53879;SDS011;39791;53.184;5.486;2024-03-02T10:12:04;23.15;;;19.83;;
53879;SDS011;39791;53.184;5.486;2024-03-02T10:14:31;22.23;;;20.02;;
53879;SDS011;39791;53.184;5.486;2024-03-02T10:17:01;21.98;;;19.85;;
53879;SDS011;39791;53.184;5.486;2024-03-02T10:19:37;21.48;;;19.58;;
53879;SDS011;39791;53.184;5.486;2024-03-02T10:22:04;21.27;;;19.27;;
53879;SDS011;39791;53.184;5.486;2024-03-02T10:24:38;21.15;;;19.25;;
53879;SDS011;39791;53.184;5.486;2024-03-02T10:27:22;22.52;;;20.33;;
53879;SDS011;39791;53.184;5.486;2024-03-02T10:29:51;21.63;;;19.42;;
53879;SDS011;39791;53.184;5.486;2024-03-02T10:32:17;21.73;;;19.63;;
53879;SDS011;39791;53.184;5.486;2024-03-02T10:34:44;23.17;;;20.77;;
53879;SDS011;39791;53.184;5.486;2024-03-02T10:37:11;21.00;;;19.20;;
53879;SDS011;39791;53.184;5.486;2024-03-02T10:39:37;25.23;;;22.67;;
53879;SDS011;39791;53.184;5.486;2024-03-02T10:42:05;22.70;;;20.63;;
53879;SDS011;39791;53.184;5.486;2024-03-02T10:44:31;22.65;;;20.55;;
53879;SDS011;39791;53.184;5.486;2024-03-02T10:47:01;23.52;;;21.33;;
53879;SDS011;39791;53.184;5.486;2024-03-02T10:49:29;24.10;;;21.60;;
53879;SDS011;39791;53.184;5.486;2024-03-02T10:51:57;22.00;;;20.00;;
53879;SDS011;39791;53.184;5.486;2024-03-02T10:54:25;22.02;;;19.58;;
53879;SDS011;39791;53.184;5.486;2024-03-02T10:56:52;22.55;;;20.45;;
53879;SDS011;39791;53.184;5.486;2024-03-02T11:01:56;21.05;;;19.15;;
53879;SDS011;39791;53.184;5.486;2024-03-02T11:04:26;21.38;;;19.30;;
53879;SDS011;39791;53.184;5.486;2024-03-02T11:06:54;21.85;;;19.75;;
53879;SDS011;39791;53.184;5.486;2024-03-02T11:09:26;20.73;;;18.88;;
53879;SDS011;39791;53.184;5.486;2024-03-02T11:11:56;22.23;;;20.13;;
53879;SDS011;39791;53.184;5.486;2024-03-02T11:14:34;20.70;;;18.80;;
53879;SDS011;39791;53.184;5.486;2024-03-02T11:17:05;19.35;;;17.65;;
53879;SDS011;39791;53.184;5.486;2024-03-02T11:19:31;20.20;;;18.33;;
53879;SDS011;39791;53.184;5.486;2024-03-02T11:21:59;19.52;;;17.88;;
53879;SDS011;39791;53.184;5.486;2024-03-02T11:26:57;14.63;;;13.45;;
53879;SDS011;39791;53.184;5.486;2024-03-02T11:32:05;12.73;;;11.68;;
53879;SDS011;39791;53.184;5.486;2024-03-02T11:34:34;15.68;;;14.35;;
53879;SDS011;39791;53.184;5.486;2024-03-02T11:37:01;11.88;;;10.68;;
53879;SDS011;39791;53.184;5.486;2024-03-02T11:39:28;12.05;;;10.95;;
53879;SDS011;39791;53.184;5.486;2024-03-02T11:41:54;9.40;;;3.03;;
53879;SDS011;39791;53.184;5.486;2024-03-02T11:44:22;4.32;;;2.08;;
53879;SDS011;39791;53.184;5.486;2024-03-02T11:47:00;7.20;;;3.15;;
53879;SDS011;39791;53.184;5.486;2024-03-02T11:49:46;6.15;;;2.20;;
53879;SDS011;39791;53.184;5.486;2024-03-02T11:52:15;7.88;;;2.78;;
53879;SDS011;39791;53.184;5.486;2024-03-02T11:54:43;3.65;;;2.22;;
53879;SDS011;39791;53.184;5.486;2024-03-02T11:57:23;6.55;;;1.90;;
53879;SDS011;39791;53.184;5.486;2024-03-02T11:59:48;7.65;;;2.35;;
53879;SDS011;39791;53.184;5.486;2024-03-02T12:02:18;3.92;;;1.70;;
53879;SDS011;39791;53.184;5.486;2024-03-02T12:04:45;5.43;;;2.05;;
53879;SDS011;39791;53.184;5.486;2024-03-02T12:07:17;3.80;;;1.85;;
53879;SDS011;39791;53.184;5.486;2024-03-02T12:09:47;4.70;;;2.20;;
53879;SDS011;39791;53.184;5.486;2024-03-02T12:12:13;5.43;;;1.88;;
53879;SDS011;39791;53.184;5.486;2024-03-02T12:14:52;5.20;;;2.00;;
53879;SDS011;39791;53.184;5.486;2024-03-02T12:17:20;4.75;;;2.00;;
53879;SDS011;39791;53.184;5.486;2024-03-02T12:19:46;10.32;;;2.80;;
53879;SDS011;39791;53.184;5.486;2024-03-02T12:22:12;4.20;;;1.92;;
53879;SDS011;39791;53.184;5.486;2024-03-02T12:24:38;4.95;;;2.08;;
53879;SDS011;39791;53.184;5.486;2024-03-02T12:27:04;4.03;;;1.77;;
53879;SDS011;39791;53.184;5.486;2024-03-02T12:29:31;5.45;;;1.70;;
53879;SDS011;39791;53.184;5.486;2024-03-02T12:31:57;8.27;;;2.20;;
53879;SDS011;39791;53.184;5.486;2024-03-02T12:34:23;7.13;;;2.38;;
53879;SDS011;39791;53.184;5.486;2024-03-02T12:36:49;4.28;;;1.77;;
53879;SDS011;39791;53.184;5.486;2024-03-02T12:39:18;6.50;;;2.15;;
53879;SDS011;39791;53.184;5.486;2024-03-02T12:41:44;2.83;;;1.60;;
53879;SDS011;39791;53.184;5.486;2024-03-02T12:44:11;4.70;;;1.95;;
53879;SDS011;39791;53.184;5.486;2024-03-02T12:46:36;7.22;;;2.30;;
53879;SDS011;39791;53.184;5.486;2024-03-02T12:49:09;4.38;;;1.98;;
53879;SDS011;39791;53.184;5.486;2024-03-02T12:51:39;5.43;;;1.73;;
53879;SDS011;39791;53.184;5.486;2024-03-02T12:54:09;4.13;;;2.05;;
53879;SDS011;39791;53.184;5.486;2024-03-02T12:56:36;5.32;;;1.85;;
53879;SDS011;39791;53.184;5.486;2024-03-02T12:59:02;3.22;;;1.55;;
53879;SDS011;39791;53.184;5.486;2024-03-02T13:01:31;5.78;;;2.00;;
53879;SDS011;39791;53.184;5.486;2024-03-02T13:03:58;6.65;;;2.17;;
53879;SDS011;39791;53.184;5.486;2024-03-02T13:06:24;4.55;;;1.77;;
53879;SDS011;39791;53.184;5.486;2024-03-02T13:08:53;4.18;;;1.90;;
53879;SDS011;39791;53.184;5.486;2024-03-02T13:11:20;7.38;;;2.10;;
53879;SDS011;39791;53.184;5.486;2024-03-02T13:13:48;3.67;;;1.70;;
53879;SDS011;39791;53.184;5.486;2024-03-02T13:16:14;6.10;;;1.90;;
53879;SDS011;39791;53.184;5.486;2024-03-02T13:18:41;3.67;;;1.50;;
53879;SDS011;39791;53.184;5.486;2024-03-02T13:21:07;3.30;;;1.80;;
53879;SDS011;39791;53.184;5.486;2024-03-02T13:23:33;4.35;;;1.85;;
53879;SDS011;39791;53.184;5.486;2024-03-02T13:25:59;4.80;;;1.80;;
53879;SDS011;39791;53.184;5.486;2024-03-02T13:28:25;3.80;;;1.73;;
53879;SDS011;39791;53.184;5.486;2024-03-02T13:30:51;3.58;;;1.80;;
53879;SDS011;39791;53.184;5.486;2024-03-02T13:33:17;5.07;;;2.05;;
53879;SDS011;39791;53.184;5.486;2024-03-02T13:35:50;3.88;;;1.70;;
53879;SDS011;39791;53.184;5.486;2024-03-02T13:38:20;3.78;;;1.70;;
53879;SDS011;39791;53.184;5.486;2024-03-02T13:40:49;5.82;;;1.80;;
53879;SDS011;39791;53.184;5.486;2024-03-02T13:43:16;2.58;;;1.50;;
53879;SDS011;39791;53.184;5.486;2024-03-02T13:45:43;3.67;;;1.70;;
53879;SDS011;39791;53.184;5.486;2024-03-02T13:48:09;3.47;;;1.55;;
53879;SDS011;39791;53.184;5.486;2024-03-02T13:50:34;3.60;;;1.55;;
53879;SDS011;39791;53.184;5.486;2024-03-02T13:53:00;7.10;;;1.60;;
53879;SDS011;39791;53.184;5.486;2024-03-02T13:55:26;4.35;;;1.58;;
53879;SDS011;39791;53.184;5.486;2024-03-02T13:57:51;4.35;;;1.52;;
53879;SDS011;39791;53.184;5.486;2024-03-02T14:00:17;4.97;;;1.80;;
53879;SDS011;39791;53.184;5.486;2024-03-02T14:02:43;3.47;;;1.52;;
53879;SDS011;39791;53.184;5.486;2024-03-02T14:05:10;3.40;;;1.63;;
53879;SDS011;39791;53.184;5.486;2024-03-02T14:07:40;4.43;;;2.08;;
53879;SDS011;39791;53.184;5.486;2024-03-02T14:10:07;4.18;;;1.75;;
53879;SDS011;39791;53.184;5.486;2024-03-02T14:12:33;4.43;;;1.70;;
53879;SDS011;39791;53.184;5.486;2024-03-02T14:14:58;5.20;;;2.10;;
53879;SDS011;39791;53.184;5.486;2024-03-02T14:17:25;4.93;;;2.20;;
53879;SDS011;39791;53.184;5.486;2024-03-02T14:19:50;4.30;;;2.03;;
53879;SDS011;39791;53.184;5.486;2024-03-02T14:22:18;6.07;;;2.58;;
53879;SDS011;39791;53.184;5.486;2024-03-02T14:24:44;5.03;;;2.05;;
53879;SDS011;39791;53.184;5.486;2024-03-02T14:27:10;5.60;;;2.40;;
53879;SDS011;39791;53.184;5.486;2024-03-02T14:29:36;6.50;;;2.40;;
53879;SDS011;39791;53.184;5.486;2024-03-02T14:32:03;5.30;;;2.30;;
53879;SDS011;39791;53.184;5.486;2024-03-02T14:34:29;5.82;;;2.25;;
53879;SDS011;39791;53.184;5.486;2024-03-02T14:36:54;4.95;;;2.08;;
53879;SDS011;39791;53.184;5.486;2024-03-02T14:39:20;7.85;;;3.08;;